createdAt,value
2018-01-02T00:01:17.952Z,3.93
2018-01-02T00:03:50.162Z,3.33
2018-01-02T00:06:42.192Z,4.80
2018-01-02T00:09:15.402Z,6.30
2018-01-02T00:11:47.424Z,5.90
2018-01-02T00:14:18.278Z,6.67
2018-01-02T00:16:47.750Z,10.57
2018-01-02T00:19:17.670Z,6.03
2018-01-02T00:22:08.192Z,6.80
2018-01-02T00:24:39.225Z,6.63
2018-01-02T00:27:10.318Z,10.93
2018-01-02T00:29:41.547Z,5.73
2018-01-02T00:32:14.402Z,8.60
2018-01-02T00:34:44.717Z,10.43
2018-01-02T00:37:39.918Z,9.80
2018-01-02T00:40:08.623Z,8.30
2018-01-02T00:42:38.052Z,9.20
2018-01-02T00:45:11.200Z,9.50
2018-01-02T00:47:44.058Z,6.77
2018-01-02T00:50:19.366Z,7.17
2018-01-02T00:56:54.205Z,9.57
2018-01-02T00:59:29.460Z,9.67
2018-01-02T01:02:04.173Z,7.70
2018-01-02T01:04:39.732Z,7.93
2018-01-02T01:17:16.246Z,11.17
2018-01-02T01:19:49.766Z,14.73
2018-01-02T01:29:12.924Z,8.93
2018-01-02T01:31:48.344Z,12.30
2018-01-02T01:34:24.301Z,11.60
2018-01-02T01:36:59.318Z,11.53
2018-01-02T01:39:32.480Z,12.00
2018-01-02T01:42:06.797Z,11.67
2018-01-02T01:44:37.283Z,11.97
2018-01-02T01:47:10.432Z,10.07
2018-01-02T01:49:41.704Z,8.07
2018-01-02T01:52:10.941Z,13.07
2018-01-02T01:54:43.249Z,14.37
2018-01-02T01:57:16.929Z,10.30
2018-01-02T01:59:52.855Z,7.60
2018-01-02T02:02:29.105Z,8.37
2018-01-02T02:05:05.181Z,7.93
2018-01-02T02:07:35.818Z,10.40
2018-01-02T02:10:10.084Z,8.90
2018-01-02T02:12:42.359Z,7.07
2018-01-02T02:15:14.086Z,13.83
2018-01-02T02:17:49.046Z,10.20
2018-01-02T02:20:21.749Z,14.37
2018-01-02T02:22:55.130Z,10.63
2018-01-02T02:25:28.551Z,11.70
2018-01-02T02:28:02.705Z,9.63
2018-01-02T02:30:38.167Z,14.53
2018-01-02T02:33:10.465Z,9.20
2018-01-02T02:35:41.975Z,10.83
2018-01-02T02:44:58.938Z,10.47
2018-01-02T02:47:27.872Z,10.60
2018-01-02T02:50:01.828Z,10.60
2018-01-02T02:52:33.308Z,9.03
2018-01-02T02:55:05.604Z,11.63
2018-01-02T02:57:40.033Z,10.77
2018-01-02T03:00:14.094Z,16.10
2018-01-02T03:02:49.264Z,10.17
2018-01-02T03:05:20.084Z,9.07
2018-01-02T03:07:50.234Z,12.93
2018-01-02T03:10:40.804Z,13.13
2018-01-02T03:13:12.091Z,13.07
2018-01-02T03:15:44.430Z,16.00
2018-01-02T03:18:20.938Z,17.30
2018-01-02T03:20:55.422Z,10.80
2018-01-02T03:23:27.768Z,17.97
2018-01-02T03:33:06.251Z,11.80
2018-01-02T03:35:36.308Z,14.43
2018-01-02T03:38:06.849Z,15.80
2018-01-02T03:40:41.073Z,10.93
2018-01-02T03:43:14.757Z,12.77
2018-01-02T03:45:49.735Z,11.00
2018-01-02T03:48:24.282Z,16.60
2018-01-02T03:50:58.630Z,12.67
2018-01-02T03:53:34.529Z,13.03
2018-01-02T03:56:09.748Z,13.13
2018-01-02T03:58:43.207Z,13.77
2018-01-02T04:01:19.525Z,18.57
2018-01-02T04:03:57.560Z,11.50
2018-01-02T04:06:30.090Z,17.37
2018-01-02T04:09:07.701Z,12.17
2018-01-02T04:12:18.037Z,16.40
2018-01-02T04:14:53.390Z,12.97
2018-01-02T04:17:30.014Z,15.03
2018-01-02T04:20:04.174Z,19.93
2018-01-02T04:22:38.930Z,16.30
2018-01-02T04:28:31.729Z,13.10
2018-01-02T04:31:03.412Z,11.33
2018-01-02T04:33:36.603Z,17.10
2018-01-02T04:36:10.056Z,19.13
2018-01-02T04:38:43.198Z,14.00
2018-01-02T04:44:34.741Z,19.37
2018-01-02T04:47:07.288Z,17.43
2018-01-02T04:49:41.342Z,14.17
2018-01-02T04:52:11.487Z,13.03
2018-01-02T04:54:46.353Z,12.97
2018-01-02T04:57:39.150Z,16.30
2018-01-02T05:00:08.107Z,15.30
2018-01-02T05:02:40.264Z,13.67
2018-01-02T05:05:09.975Z,13.90
2018-01-02T05:07:41.689Z,18.10
2018-01-02T05:13:37.124Z,17.23
2018-01-02T05:16:07.202Z,18.67
2018-01-02T05:18:40.344Z,15.20
2018-01-02T05:21:11.909Z,14.27
2018-01-02T05:23:46.276Z,11.73
2018-01-02T05:29:39.970Z,24.27
2018-01-02T05:32:14.891Z,14.73
2018-01-02T05:34:50.223Z,14.87
2018-01-02T05:37:23.208Z,15.73
2018-01-02T05:39:59.605Z,21.40
2018-01-02T05:42:47.742Z,15.30
2018-01-02T05:45:20.047Z,22.63
2018-01-02T05:47:54.339Z,16.83
2018-01-02T05:50:25.970Z,14.53
2018-01-02T05:52:58.457Z,14.27
2018-01-02T05:55:29.471Z,18.93
2018-01-02T05:58:16.837Z,12.93
2018-01-02T06:00:50.168Z,18.00
2018-01-02T06:03:21.054Z,23.07
2018-01-02T06:05:53.237Z,14.70
2018-01-02T06:08:31.035Z,17.87
2018-01-02T06:11:03.301Z,19.33
2018-01-02T06:13:56.994Z,17.30
2018-01-02T06:16:27.641Z,13.93
2018-01-02T06:18:59.202Z,15.17
2018-01-02T06:21:32.562Z,20.63
2018-01-02T06:24:02.975Z,14.43
2018-01-02T06:26:39.094Z,18.77
2018-01-02T06:29:08.981Z,11.80
2018-01-02T06:31:41.917Z,15.33
2018-01-02T06:34:16.524Z,15.80
2018-01-02T06:36:53.113Z,21.23
2018-01-02T06:39:26.082Z,15.80
2018-01-02T07:02:47.849Z,14.43
2018-01-02T07:05:17.493Z,17.73
2018-01-02T07:07:49.794Z,13.23
2018-01-02T07:10:28.431Z,19.33
2018-01-02T07:13:00.402Z,14.13
2018-01-02T07:15:29.679Z,17.23
2018-01-02T07:18:05.705Z,9.90
2018-01-02T07:20:39.426Z,11.70
2018-01-02T07:23:15.621Z,13.10
2018-01-02T07:25:50.191Z,17.33
2018-01-02T07:35:06.806Z,17.97
2018-01-02T07:37:38.605Z,11.57
2018-01-02T07:40:13.382Z,13.10
2018-01-02T07:43:08.639Z,12.60
2018-01-02T07:45:41.564Z,14.90
2018-01-02T07:48:11.859Z,13.83
2018-01-02T07:50:44.509Z,12.27
2018-01-02T07:53:17.666Z,14.33
2018-01-02T07:55:53.719Z,19.00
2018-01-02T07:58:22.140Z,16.97
2018-01-02T08:00:57.251Z,13.47
2018-01-02T08:03:32.778Z,17.57
2018-01-02T08:06:11.970Z,11.90
2018-01-02T08:08:45.491Z,14.50
2018-01-02T08:11:24.816Z,18.10
2018-01-02T08:17:21.702Z,8.37
2018-01-02T08:19:54.750Z,14.77
2018-01-02T08:22:27.935Z,15.43
2018-01-02T08:25:00.730Z,14.50
2018-01-02T08:27:30.790Z,14.97
2018-01-02T08:33:28.791Z,14.33
2018-01-02T08:36:01.942Z,20.93
2018-01-02T08:38:35.389Z,18.97
2018-01-02T08:41:11.620Z,12.57
2018-01-02T08:50:49.481Z,17.77
2018-01-02T08:53:19.366Z,15.30
2018-01-02T08:55:50.377Z,11.40
2018-01-02T09:02:27.906Z,8.73
2018-01-02T09:05:03.065Z,17.17
2018-01-02T09:07:37.750Z,13.60
2018-01-02T09:10:11.015Z,13.77
2018-01-02T09:12:48.644Z,14.63
2018-01-02T09:15:40.963Z,16.83
2018-01-02T09:18:11.229Z,11.93
2018-01-02T09:20:41.034Z,13.73
2018-01-02T09:23:11.632Z,12.83
2018-01-02T09:25:42.991Z,17.00
2018-01-02T09:28:16.880Z,21.93
2018-01-02T09:31:28.208Z,13.97
2018-01-02T09:33:59.651Z,14.70
2018-01-02T09:36:32.826Z,18.03
2018-01-02T09:39:05.533Z,20.23
2018-01-02T09:41:37.789Z,18.93
2018-01-02T09:44:09.207Z,13.50
2018-01-02T09:46:41.696Z,18.57
2018-01-02T09:49:11.952Z,12.77
2018-01-02T09:51:42.823Z,21.40
2018-01-02T09:54:16.324Z,17.37
2018-01-02T09:56:49.012Z,15.13
2018-01-02T09:59:32.144Z,19.13
2018-01-02T10:02:03.639Z,21.67
2018-01-02T10:04:35.619Z,20.57
2018-01-02T10:07:08.665Z,18.40
2018-01-02T10:09:43.761Z,16.60
2018-01-02T10:12:18.145Z,19.13
2018-01-02T10:14:56.481Z,18.90
2018-01-02T10:17:27.997Z,16.57
2018-01-02T10:19:57.357Z,20.23
2018-01-02T10:22:28.509Z,26.20
2018-01-02T10:24:58.228Z,22.13
2018-01-02T10:27:30.486Z,18.87
2018-01-02T10:30:41.917Z,22.60
2018-01-02T10:33:11.598Z,17.37
2018-01-02T10:35:41.393Z,29.63
2018-01-02T10:38:11.561Z,33.17
2018-01-02T10:40:44.273Z,23.63
2018-01-02T10:43:15.324Z,25.93
2018-01-02T10:46:22.110Z,22.80
2018-01-02T10:48:52.625Z,20.50
2018-01-02T10:51:23.512Z,15.47
2018-01-02T10:53:54.616Z,18.70
2018-01-02T10:56:25.895Z,25.50
2018-01-02T10:58:56.405Z,25.30
2018-01-02T11:05:09.172Z,22.00
2018-01-02T11:07:42.455Z,21.37
2018-01-02T11:10:14.116Z,21.23
2018-01-02T11:12:49.919Z,22.77
2018-01-02T11:15:55.863Z,22.87
2018-01-02T11:18:31.521Z,26.13
2018-01-02T11:21:04.774Z,29.53
2018-01-02T11:23:40.443Z,29.43
2018-01-02T11:26:11.508Z,23.10
2018-01-02T11:28:42.935Z,22.03
2018-01-02T11:31:35.351Z,21.40
2018-01-02T11:34:06.168Z,24.43
2018-01-02T11:36:40.302Z,20.50
2018-01-02T11:39:11.371Z,18.27
2018-01-02T11:41:42.379Z,23.30
2018-01-02T11:44:14.309Z,16.80
2018-01-02T11:46:45.107Z,13.63
2018-01-02T11:49:21.190Z,19.63
2018-01-02T11:51:52.072Z,11.60
2018-01-02T11:54:21.169Z,16.00
2018-01-02T11:56:51.601Z,14.13
2018-01-02T11:59:23.672Z,18.93
2018-01-02T12:01:57.057Z,10.10
2018-01-02T12:04:29.294Z,13.00
2018-01-02T12:07:05.224Z,9.83
2018-01-02T12:09:36.313Z,8.83
2018-01-02T12:12:09.992Z,9.67
2018-01-02T12:14:40.549Z,7.83
2018-01-02T12:17:11.921Z,11.50
2018-01-02T12:19:45.934Z,10.17
2018-01-02T12:22:19.605Z,6.33
2018-01-02T12:24:53.198Z,4.60
2018-01-02T12:27:23.776Z,5.20
2018-01-02T12:29:53.580Z,10.00
2018-01-02T12:32:28.782Z,4.90
2018-01-02T12:35:00.180Z,6.17
2018-01-02T12:37:33.969Z,9.03
2018-01-02T12:40:07.348Z,5.40
2018-01-02T12:42:36.174Z,2.57
2018-01-02T12:45:06.309Z,7.07
2018-01-02T12:51:22.398Z,5.30
2018-01-02T12:53:53.755Z,3.90
2018-01-02T12:56:24.660Z,3.70
2018-01-02T12:58:56.858Z,4.20
2018-01-02T13:01:26.231Z,4.10
2018-01-02T13:03:59.755Z,3.53
2018-01-02T13:06:28.418Z,3.23
2018-01-02T13:09:05.087Z,1.83
2018-01-02T13:11:42.259Z,2.07
2018-01-02T13:14:20.028Z,1.30
2018-01-02T13:16:54.961Z,1.63
2018-01-02T13:19:24.296Z,3.83
2018-01-02T13:21:59.201Z,1.47
2018-01-02T13:24:31.989Z,1.40
2018-01-02T13:27:01.236Z,7.27
2018-01-02T13:29:31.684Z,4.97
2018-01-02T13:32:18.193Z,10.13
2018-01-02T13:34:51.492Z,2.20
2018-01-02T13:37:23.886Z,2.97
2018-01-02T13:39:52.894Z,2.10
2018-01-02T13:42:32.459Z,3.43
2018-01-02T13:45:05.590Z,1.40
2018-01-02T13:47:41.497Z,1.70
2018-01-02T13:50:14.193Z,2.43
2018-01-02T13:52:44.821Z,3.10
2018-01-02T13:55:13.399Z,2.40
2018-01-02T13:57:44.290Z,4.03
2018-01-02T14:00:16.699Z,2.57
2018-01-02T14:09:49.567Z,1.83
2018-01-02T14:12:22.968Z,2.30
2018-01-02T14:14:54.024Z,3.13
2018-01-02T14:17:26.386Z,2.77
2018-01-02T14:20:01.497Z,2.80
2018-01-02T14:22:33.106Z,3.37
2018-01-02T14:25:05.081Z,7.30
2018-01-02T14:27:35.852Z,4.03
2018-01-02T14:30:07.804Z,5.47
2018-01-02T14:32:39.190Z,5.50
2018-01-02T14:38:37.842Z,7.07
2018-01-02T14:41:08.642Z,6.53
2018-01-02T14:43:37.574Z,7.87
2018-01-02T14:46:09.801Z,11.07
2018-01-02T14:52:21.666Z,10.20
2018-01-02T14:54:55.567Z,14.30
2018-01-02T14:57:29.209Z,7.07
2018-01-02T15:00:03.414Z,11.03
2018-01-02T15:02:39.017Z,10.23
2018-01-02T15:05:13.957Z,17.00
2018-01-02T15:07:47.647Z,17.07
2018-01-02T15:10:22.403Z,15.60
2018-01-02T15:12:52.485Z,14.67
2018-01-02T15:15:23.414Z,9.97
2018-01-02T15:17:54.646Z,15.50
2018-01-02T15:20:27.206Z,19.53
2018-01-02T15:23:07.219Z,19.23
2018-01-02T15:25:39.964Z,23.40
2018-01-02T15:28:12.719Z,18.07
2018-01-02T15:30:49.068Z,17.03
2018-01-02T15:33:22.590Z,19.47
2018-01-02T15:35:53.162Z,20.03
2018-01-02T15:38:22.694Z,18.70
2018-01-02T15:40:51.385Z,19.40
2018-01-02T15:43:22.022Z,20.93
2018-01-02T15:45:55.938Z,24.20
2018-01-02T15:48:30.978Z,26.83
2018-01-02T15:51:06.073Z,22.40
2018-01-02T15:53:41.273Z,20.07
2018-01-02T15:56:14.800Z,19.87
2018-01-02T15:58:45.571Z,23.33
2018-01-02T16:01:24.412Z,25.07
2018-01-02T16:03:57.939Z,26.73
2018-01-02T16:09:51.832Z,28.23
2018-01-02T16:12:25.958Z,28.87
2018-01-02T16:14:59.558Z,27.70
2018-01-02T16:17:36.371Z,24.37
2018-01-02T16:27:11.321Z,23.53
2018-01-02T16:29:56.996Z,22.50
2018-01-02T16:32:28.423Z,23.13
2018-01-02T16:34:59.200Z,24.83
2018-01-02T16:37:31.686Z,29.23
2018-01-02T16:40:02.681Z,27.83
2018-01-02T16:42:31.958Z,26.60
2018-01-02T16:45:04.322Z,32.57
2018-01-02T16:47:36.909Z,36.43
2018-01-02T16:50:19.014Z,42.70
2018-01-02T16:52:49.888Z,29.20
2018-01-02T16:55:19.869Z,33.63
2018-01-02T16:57:49.141Z,32.17
2018-01-02T17:00:21.902Z,44.00
2018-01-02T17:02:58.801Z,46.27
2018-01-02T17:05:28.957Z,46.30
2018-01-02T17:08:01.194Z,39.57
2018-01-02T17:10:32.503Z,48.07
2018-01-02T17:13:01.747Z,41.93
2018-01-02T17:15:34.236Z,40.67
2018-01-02T17:18:05.225Z,42.97
2018-01-02T17:20:45.517Z,40.93
2018-01-02T17:23:20.193Z,48.77
2018-01-02T17:25:52.666Z,43.73
2018-01-02T17:28:23.663Z,35.17
2018-01-02T17:30:53.151Z,40.90
2018-01-02T17:33:29.955Z,39.13
2018-01-02T17:40:03.286Z,45.53
2018-01-02T17:42:40.678Z,49.20
2018-01-02T17:45:13.914Z,48.97
2018-01-02T17:47:54.157Z,49.97
2018-01-02T17:55:20.372Z,45.57
2018-01-02T17:57:59.326Z,53.87
2018-01-02T18:00:32.548Z,47.10
2018-01-02T18:03:07.001Z,51.23
2018-01-02T18:05:37.035Z,47.07
2018-01-02T18:08:30.263Z,52.83
2018-01-02T18:11:09.112Z,40.23
2018-01-02T18:13:47.527Z,52.93
2018-01-02T18:16:17.159Z,46.63
2018-01-02T18:18:51.568Z,50.07
2018-01-02T18:21:24.012Z,53.27
2018-01-02T18:24:01.674Z,60.13
2018-01-02T18:26:33.412Z,43.17
2018-01-02T18:29:08.336Z,50.30
2018-01-02T18:34:23.579Z,53.23
2018-01-02T18:40:47.249Z,38.20
2018-01-02T18:43:30.520Z,58.40
2018-01-02T18:46:04.929Z,52.30
2018-01-02T18:48:39.905Z,43.60
2018-01-02T18:51:13.200Z,55.90
2018-01-02T18:54:23.332Z,44.43
2018-01-02T18:56:55.401Z,52.10
2018-01-02T18:59:34.943Z,60.50
2018-01-02T19:02:05.963Z,47.63
2018-01-02T19:04:37.623Z,49.43
2018-01-02T19:07:08.817Z,56.17
2018-01-02T19:09:40.742Z,52.10
2018-01-02T19:12:11.557Z,52.13
2018-01-02T19:14:42.845Z,50.53
2018-01-02T19:17:14.274Z,45.63
2018-01-02T19:19:47.143Z,51.60
2018-01-02T19:22:20.574Z,56.00
2018-01-02T19:24:52.234Z,57.47
2018-01-02T19:27:21.725Z,54.63
2018-01-02T19:29:52.321Z,54.90
2018-01-02T19:32:23.867Z,59.47
2018-01-02T19:34:57.447Z,56.17
2018-01-02T19:37:30.084Z,50.60
2018-01-02T19:47:24.015Z,51.67
2018-01-02T19:49:59.537Z,58.23
2018-01-02T19:52:30.383Z,55.90
2018-01-02T19:55:00.849Z,46.90
2018-01-02T19:57:36.290Z,51.33
2018-01-02T20:00:10.421Z,53.77
2018-01-02T20:02:41.627Z,59.43
2018-01-02T20:05:14.360Z,65.60
2018-01-02T20:07:47.120Z,66.67
2018-01-02T20:20:47.287Z,63.57
2018-01-02T20:23:20.139Z,68.20
2018-01-02T20:29:20.579Z,55.13
2018-01-02T20:31:55.026Z,51.00
2018-01-02T20:34:27.749Z,55.40
2018-01-02T20:37:02.424Z,46.93
2018-01-02T20:39:38.976Z,57.77
2018-01-02T20:42:10.872Z,61.17
2018-01-02T20:44:42.223Z,46.03
2018-01-02T20:47:13.666Z,43.50
2018-01-02T20:49:46.966Z,44.67
2018-01-02T20:52:18.934Z,33.30
2018-01-02T20:58:33.075Z,32.37
2018-01-02T21:01:04.450Z,28.80
2018-01-02T21:03:34.858Z,26.60
2018-01-02T21:06:06.945Z,23.80
2018-01-02T21:08:41.903Z,20.97
2018-01-02T21:11:11.881Z,20.43
2018-01-02T21:13:53.320Z,15.97
2018-01-02T21:16:23.174Z,14.03
2018-01-02T21:18:54.399Z,13.97
2018-01-02T21:21:26.800Z,15.03
2018-01-02T21:23:57.818Z,12.87
2018-01-02T21:30:30.459Z,13.83
2018-01-02T21:33:04.151Z,13.07
2018-01-02T21:35:34.771Z,10.23
2018-01-02T21:38:07.025Z,9.17
2018-01-02T21:47:58.696Z,10.63
2018-01-02T21:50:30.658Z,10.57
2018-01-02T21:53:01.891Z,14.47
2018-01-02T21:55:34.265Z,4.23
2018-01-02T22:23:55.813Z,9.07
2018-01-02T22:26:47.371Z,12.27
2018-01-02T22:29:16.885Z,10.77
2018-01-02T22:31:48.050Z,11.47
2018-01-02T22:34:19.017Z,8.43
2018-01-02T22:36:52.457Z,10.07
2018-01-02T22:39:27.302Z,9.33
2018-01-02T22:42:14.917Z,9.23
2018-01-02T22:44:46.023Z,7.97
2018-01-02T22:47:17.556Z,11.27
2018-01-02T22:49:49.149Z,12.17
2018-01-02T22:52:20.601Z,9.77
2018-01-02T22:54:52.200Z,7.83
2018-01-02T23:08:10.091Z,4.60
2018-01-02T23:10:41.800Z,5.00
2018-01-02T23:13:52.996Z,8.70
2018-01-02T23:16:24.659Z,11.93
2018-01-02T23:18:59.960Z,6.87
2018-01-02T23:21:37.098Z,5.07
2018-01-02T23:24:09.199Z,2.20
2018-01-02T23:26:42.593Z,2.27
2018-01-02T23:32:35.580Z,4.10
2018-01-02T23:35:07.007Z,2.97
2018-01-02T23:37:37.832Z,5.20
2018-01-02T23:40:09.937Z,5.03
2018-01-02T23:52:45.412Z,3.77
2018-01-02T23:55:16.440Z,4.47
